Time;durP1;ratioP1;P1;durP2;ratioP2;P2;SDS_P1;SDS_P2;PMS_P1;PMS_P2;Temp;Humidity;BMP_temperature;BMP_pressure;BME280_temperature;BME280_humidity;BME280_pressure;Samples;Min_cycle;Max_cycle;Signal;HPM_P1;HPM_P2
2021/06/06 00:03:13;;;;;;;67.90;32.83;;;;;;;16.94;74.89;100973.09;8768071;33;20172;-72
2021/06/06 00:08:18;;;;;;;69.70;34.58;;;;;;;16.72;75.01;100977.06;8767322;33;20231;-72
2021/06/06 00:13:21;;;;;;;66.75;33.92;;;;;;;16.83;74.73;100979.56;8766382;33;20727;-72
2021/06/06 00:18:24;;;;;;;71.22;32.13;;;;;;;16.94;74.42;100975.81;8766848;33;20204;-72
2021/06/06 00:23:30;;;;;;;70.25;34.38;;;;;;;16.57;74.77;100974.00;8767438;33;20195;-72
2021/06/06 00:28:33;;;;;;;68.35;32.08;;;;;;;16.54;74.82;100974.31;8766874;33;20211;-72
2021/06/06 00:33:36;;;;;;;68.60;33.70;;;;;;;16.85;74.18;100974.84;8766988;33;20302;-72
2021/06/06 00:38:41;;;;;;;69.60;33.17;;;;;;;16.89;73.43;100967.25;8766539;33;20211;-72
2021/06/06 00:43:46;;;;;;;66.13;32.67;;;;;;;16.77;73.84;100970.19;8768034;33;20275;-71
2021/06/06 00:48:50;;;;;;;77.55;36.10;;;;;;;16.90;73.97;100969.84;8791451;27;20306;-74
2021/06/06 00:54:02;;;;;;;73.80;36.70;;;;;;;16.51;74.72;100975.47;8746813;33;20207;-74
2021/06/06 00:59:07;;;;;;;76.63;36.58;;;;;;;16.48;74.56;100975.75;8766663;33;20703;-75
2021/06/06 01:04:16;;;;;;;84.85;39.38;;;;;;;16.43;74.86;100971.75;8770043;33;20187;-74
2021/06/06 01:09:23;;;;;;;80.05;36.53;;;;;;;16.14;76.37;100981.66;8767095;33;20200;-74
2021/06/06 01:14:34;;;;;;;79.85;39.38;;;;;;;16.25;76.74;100971.66;8767139;33;20192;-74
2021/06/06 01:19:44;;;;;;;85.97;41.25;;;;;;;15.70;79.32;100988.56;8767094;33;20708;-73
2021/06/06 01:24:55;;;;;;;82.32;38.63;;;;;;;15.41;80.70;100980.44;8765646;33;20250;-74
2021/06/06 01:30:05;;;;;;;76.55;35.58;;;;;;;15.45;80.23;100984.59;8767041;33;20238;-74
2021/06/06 01:35:14;;;;;;;77.38;37.05;;;;;;;15.45;80.49;100987.28;8767186;33;20212;-74
2021/06/06 01:40:24;;;;;;;75.82;36.90;;;;;;;15.52;80.06;100976.72;8742527;33;20266;-74
2021/06/06 01:45:33;;;;;;;68.55;33.50;;;;;;;15.59;80.36;100980.59;8766269;33;20184;-73
2021/06/06 01:50:43;;;;;;;68.25;32.47;;;;;;;15.49;80.04;100980.56;8766397;33;20220;-74
2021/06/06 01:55:53;;;;;;;61.75;33.30;;;;;;;15.46;80.80;100984.41;8766230;33;20220;-74
2021/06/06 02:01:00;;;;;;;60.58;30.92;;;;;;;15.36;80.89;100982.69;8742324;33;20216;-74
2021/06/06 02:06:12;;;;;;;60.92;32.20;;;;;;;15.15;81.69;100980.94;8742374;33;20188;-74
2021/06/06 02:11:23;;;;;;;63.75;32.00;;;;;;;15.05;82.21;100982.78;8742102;33;20219;-74
2021/06/06 02:16:32;;;;;;;65.53;32.45;;;;;;;15.07;81.80;100978.09;8765780;33;20244;-74
2021/06/06 02:21:43;;;;;;;64.22;32.58;;;;;;;14.99;82.00;100981.47;8746762;33;20688;-74
2021/06/06 02:26:55;;;;;;;57.58;31.13;;;;;;;15.09;82.00;100977.97;8746320;33;20269;-74
2021/06/06 02:32:05;;;;;;;66.75;33.72;;;;;;;14.83;81.73;100987.41;8746305;33;20282;-74
2021/06/06 02:37:14;;;;;;;65.45;33.78;;;;;;;14.81;82.15;100975.88;8746434;33;20282;-74
2021/06/06 02:42:25;;;;;;;68.00;35.47;;;;;;;14.82;82.17;100980.28;8760591;33;20208;-74
2021/06/06 02:47:34;;;;;;;62.20;33.42;;;;;;;15.01;81.56;100976.78;8770389;33;20184;-74
2021/06/06 02:52:50;;;;;;;68.18;35.08;;;;;;;15.18;81.27;100985.22;8772360;33;20211;-74
2021/06/06 02:58:06;;;;;;;77.32;36.75;;;;;;;14.98;81.94;100982.47;8746396;33;20196;-74
2021/06/06 03:03:20;;;;;;;82.00;38.08;;;;;;;14.97;81.60;100988.00;8774489;33;20184;-74
2021/06/06 03:08:25;;;;;;;73.07;35.83;;;;;;;14.59;82.70;100987.75;8768761;33;20223;-73
2021/06/06 03:13:35;;;;;;;76.55;38.50;;;;;;;14.91;81.68;100991.28;8770339;33;20200;-72
2021/06/06 03:18:41;;;;;;;74.38;37.50;;;;;;;14.89;81.89;100990.56;8745663;33;20220;-74
2021/06/06 03:23:51;;;;;;;81.63;38.58;;;;;;;14.46;81.81;100981.72;8769920;33;20335;-74
2021/06/06 03:28:59;;;;;;;88.50;39.15;;;;;;;14.57;82.08;100987.03;8744863;33;20281;-74
2021/06/06 03:34:06;;;;;;;82.53;38.90;;;;;;;14.64;81.92;100987.34;8744957;33;20305;-74
2021/06/06 03:39:27;;;;;;;80.75;39.15;;;;;;;14.45;81.91;100989.97;8745164;33;20219;-74
2021/06/06 03:44:36;;;;;;;76.85;37.75;;;;;;;14.30;82.53;100994.84;8768430;33;20208;-74
2021/06/06 03:49:38;;;;;;;83.13;38.20;;;;;;;14.62;81.92;100993.88;8745426;33;20239;-74
2021/06/06 03:54:43;;;;;;;88.03;40.90;;;;;;;14.57;81.68;100997.84;8768024;33;20211;-74
2021/06/06 03:59:48;;;;;;;81.28;37.80;;;;;;;14.20;81.53;101010.97;8769053;33;20302;-74
2021/06/06 04:04:53;;;;;;;85.20;38.33;;;;;;;14.42;81.58;101007.31;8744567;33;20683;-75
2021/06/06 04:09:56;;;;;;;85.25;39.95;;;;;;;14.36;81.13;101014.06;8768777;33;20295;-73
2021/06/06 04:15:05;;;;;;;79.45;38.00;;;;;;;13.97;81.87;101018.38;8743957;33;20204;-75
2021/06/06 04:20:11;;;;;;;92.22;42.60;;;;;;;14.19;81.50;101011.97;8768192;33;20204;-73
2021/06/06 04:25:17;;;;;;;81.15;39.90;;;;;;;14.40;80.73;101006.59;8744383;33;20285;-74
2021/06/06 04:30:23;;;;;;;76.25;37.97;;;;;;;14.69;80.27;101013.97;8767996;33;20248;-74
2021/06/06 04:35:27;;;;;;;78.03;39.08;;;;;;;14.88;80.27;101008.63;8743596;33;20224;-73
2021/06/06 04:40:32;;;;;;;81.28;38.13;;;;;;;14.90;79.22;101013.94;8766384;33;20231;-74
2021/06/06 04:45:39;;;;;;;72.47;36.85;;;;;;;14.74;78.94;101009.03;8767796;33;20180;-74
2021/06/06 04:50:46;;;;;;;71.15;36.00;;;;;;;14.90;79.22;101019.34;8743167;33;20224;-74
2021/06/06 04:55:50;;;;;;;62.08;32.13;;;;;;;14.87;78.09;101022.31;8743347;33;20222;-74
2021/06/06 05:00:55;;;;;;;73.10;34.47;;;;;;;15.08;78.42;101020.38;8747374;33;20216;-74
2021/06/06 05:05:59;;;;;;;66.30;31.55;;;;;;;14.68;78.73;101023.09;8767245;33;20176;-74
2021/06/06 05:11:04;;;;;;;69.18;32.50;;;;;;;14.68;78.92;101014.97;8743001;33;20351;-74
2021/06/06 05:16:14;;;;;;;50.45;27.70;;;;;;;14.87;78.07;101025.03;8767041;33;20208;-74
2021/06/06 05:21:17;;;;;;;44.90;23.55;;;;;;;15.07;77.68;101021.38;8766944;33;20208;-75
2021/06/06 05:26:20;;;;;;;40.20;20.88;;;;;;;15.21;75.90;101022.81;8766939;33;20187;-74
2021/06/06 05:31:24;;;;;;;38.90;20.88;;;;;;;15.40;75.47;101025.59;8766961;33;20693;-74
2021/06/06 05:36:28;;;;;;;32.50;20.98;;;;;;;15.43;74.95;101028.03;8742358;33;20204;-74
2021/06/06 05:41:31;;;;;;;31.67;18.42;;;;;;;15.72;73.97;101035.34;8744000;33;20230;-74
2021/06/06 05:46:36;;;;;;;32.47;17.92;;;;;;;16.11;72.22;101030.72;8768739;33;20184;-74
2021/06/06 05:51:39;;;;;;;30.90;17.85;;;;;;;16.51;71.26;101029.69;8769671;33;20212;-74
2021/06/06 05:56:45;;;;;;;30.02;16.73;;;;;;;16.49;70.35;101028.97;8772503;33;20291;-73
2021/06/06 06:01:49;;;;;;;32.30;16.67;;;;;;;16.54;70.17;101025.84;8774217;33;20204;-74
2021/06/06 06:06:52;;;;;;;28.33;16.17;;;;;;;16.68;71.73;101032.63;8773162;33;20176;-74
2021/06/06 06:11:55;;;;;;;33.35;18.48;;;;;;;16.67;70.12;101034.47;8775483;33;20295;-74
2021/06/06 06:16:59;;;;;;;36.53;20.63;;;;;;;16.72;71.59;101034.88;8776354;33;20216;-74
2021/06/06 06:22:03;;;;;;;30.65;18.98;;;;;;;16.65;70.79;101041.91;8773081;33;20212;-74
2021/06/06 06:27:09;;;;;;;18.08;12.15;;;;;;;16.76;71.09;101046.31;8749261;33;20186;-74
2021/06/06 06:32:31;;;;;;;16.67;11.45;;;;;;;16.72;69.34;101047.59;8774231;33;20211;-74
2021/06/06 06:37:34;;;;;;;22.02;13.43;;;;;;;16.24;71.76;101060.25;8772695;33;20180;-74
2021/06/06 06:42:37;;;;;;;21.90;14.25;;;;;;;16.50;70.83;101055.09;8772278;33;20204;-74
2021/06/06 06:47:41;;;;;;;22.67;13.63;;;;;;;16.96;68.39;101047.06;8771754;33;20173;-74
2021/06/06 06:52:44;;;;;;;24.35;13.48;;;;;;;16.51;70.68;101051.38;8736865;27;20247;-70
2021/06/06 06:57:48;;;;;;;22.13;13.07;;;;;;;16.89;69.50;101054.94;8711696;34;20681;-70
2021/06/06 07:02:52;;;;;;;21.33;14.45;;;;;;;16.62;69.75;101063.03;8711484;34;20197;-70
2021/06/06 07:07:55;;;;;;;24.55;14.65;;;;;;;16.43;71.09;101063.94;8711258;34;20272;-70
2021/06/06 07:12:58;;;;;;;23.20;13.40;;;;;;;15.95;72.00;101073.81;8711896;34;20211;-71
2021/06/06 07:18:03;;;;;;;26.35;16.13;;;;;;;16.15;72.10;101074.66;8687212;34;20219;-71
2021/06/06 07:23:08;;;;;;;28.70;16.90;;;;;;;15.84;72.96;101076.66;8688237;34;20622;-70
2021/06/06 07:28:15;;;;;;;27.70;17.10;;;;;;;15.90;73.17;101076.09;8711571;34;20169;-71
2021/06/06 07:33:25;;;;;;;29.13;16.52;;;;;;;16.01;71.99;101070.53;8710639;34;20189;-70
2021/06/06 07:38:28;;;;;;;28.48;18.95;;;;;;;16.00;72.77;101076.09;8710102;34;20275;-71
2021/06/06 07:43:32;;;;;;;27.58;16.77;;;;;;;15.89;72.35;101077.09;8710488;34;20184;-70
2021/06/06 07:48:36;;;;;;;27.48;16.77;;;;;;;15.96;73.31;101063.81;8710014;34;20220;-70
2021/06/06 07:53:39;;;;;;;28.65;17.08;;;;;;;16.02;72.29;101056.00;8710667;34;20205;-71
2021/06/06 07:58:41;;;;;;;21.38;12.52;;;;;;;16.56;71.29;101059.06;8710112;34;20197;-70
2021/06/06 08:03:45;;;;;;;27.85;16.52;;;;;;;16.59;69.64;101059.66;8709795;34;20177;-70
2021/06/06 08:08:48;;;;;;;28.70;16.13;;;;;;;16.68;69.31;101057.03;8709341;34;20209;-71
2021/06/06 08:13:52;;;;;;;25.85;14.52;;;;;;;16.84;69.61;101057.28;8709959;34;20208;-70
2021/06/06 08:18:56;;;;;;;23.65;14.32;;;;;;;16.93;69.21;101059.06;8708933;34;20205;-70
2021/06/06 08:23:59;;;;;;;21.85;13.43;;;;;;;16.96;68.84;101066.06;8709019;34;20582;-70
2021/06/06 08:29:03;;;;;;;24.23;15.18;;;;;;;16.45;70.90;101061.94;8709090;34;20216;-70
2021/06/06 08:34:09;;;;;;;20.58;13.27;;;;;;;16.52;70.49;101061.22;8708950;34;20208;-70
2021/06/06 08:39:18;;;;;;;23.17;13.90;;;;;;;16.69;70.73;101064.16;8709438;34;20213;-71
2021/06/06 08:44:31;;;;;;;24.10;14.57;;;;;;;17.04;69.80;101068.88;8684982;34;20553;-71
2021/06/06 08:49:41;;;;;;;25.23;15.77;;;;;;;16.67;70.39;101079.72;8708873;34;20696;-70
2021/06/06 08:54:57;;;;;;;26.67;14.48;;;;;;;15.77;73.07;101078.22;8708643;34;20189;-70
2021/06/06 09:00:06;;;;;;;28.08;16.33;;;;;;;15.74;73.87;101083.94;8708995;34;20350;-70
2021/06/06 09:05:11;;;;;;;19.98;13.25;;;;;;;16.51;70.98;101089.34;8708750;34;20666;-70
2021/06/06 09:10:18;;;;;;;20.23;13.20;;;;;;;17.03;68.99;101089.75;8708667;34;20205;-70
2021/06/06 09:15:26;;;;;;;20.90;12.95;;;;;;;17.11;68.54;101096.28;8708195;34;20189;-71
2021/06/06 09:20:36;;;;;;;21.52;13.75;;;;;;;16.78;69.81;101095.81;8708671;34;20622;-71
2021/06/06 09:25:42;;;;;;;20.85;13.93;;;;;;;16.67;70.09;101099.56;8712173;34;20595;-72
2021/06/06 09:30:45;;;;;;;19.75;13.27;;;;;;;16.65;70.83;101103.44;8713111;34;20204;-72
2021/06/06 09:35:55;;;;;;;23.17;14.77;;;;;;;16.63;70.50;101106.31;8712825;34;20736;-72
2021/06/06 09:41:15;;;;;;;31.83;17.88;;;;;;;16.10;71.43;101102.22;8713532;34;20695;-72
2021/06/06 09:46:20;;;;;;;30.13;17.90;;;;;;;15.69;73.41;101109.59;8696129;34;20646;-72
2021/06/06 09:51:30;;;;;;;30.90;18.10;;;;;;;15.72;73.21;101105.75;8713153;34;20569;-71
2021/06/06 09:56:32;;;;;;;32.63;19.10;;;;;;;16.42;71.22;101102.91;8712737;34;20208;-71
2021/06/06 10:01:38;;;;;;;28.50;17.73;;;;;;;16.40;71.47;101113.03;8713178;34;20215;-72
2021/06/06 10:06:44;;;;;;;33.92;20.25;;;;;;;16.69;70.26;101113.84;8688475;34;20197;-72
2021/06/06 10:11:58;;;;;;;34.63;21.33;;;;;;;16.49;69.95;101132.03;8712842;34;20310;-72
2021/06/06 10:17:04;;;;;;;34.88;20.23;;;;;;;16.61;69.71;101121.84;8712007;34;20216;-72
2021/06/06 10:22:16;;;;;;;37.33;21.27;;;;;;;16.79;69.74;101127.41;8712669;34;20728;-71
2021/06/06 10:27:26;;;;;;;47.67;23.45;;;;;;;17.04;69.38;101129.44;8711676;34;20169;-72
2021/06/06 10:32:33;;;;;;;50.08;27.63;;;;;;;17.09;69.05;101126.31;8712076;34;20205;-72
2021/06/06 10:37:37;;;;;;;51.55;28.33;;;;;;;17.07;68.31;101139.16;8711039;34;20713;-72
2021/06/06 10:42:45;;;;;;;49.45;26.77;;;;;;;17.25;68.34;101141.97;8710566;34;20701;-71
2021/06/06 10:47:52;;;;;;;49.03;26.80;;;;;;;17.12;67.72;101138.72;8711144;34;20170;-71
2021/06/06 10:53:12;;;;;;;52.22;27.73;;;;;;;17.13;68.12;101135.00;8711529;34;20205;-71
2021/06/06 10:58:30;;;;;;;49.65;27.60;;;;;;;17.65;66.15;101121.75;8710830;34;20314;-70
2021/06/06 11:03:35;;;;;;;53.95;28.20;;;;;;;17.28;67.78;101129.94;8711118;34;20594;-71
2021/06/06 11:08:46;;;;;;;45.90;26.75;;;;;;;17.60;65.80;101133.06;8710716;34;20733;-70
2021/06/06 11:13:53;;;;;;;48.30;27.42;;;;;;;17.83;65.04;101133.50;8710879;34;20197;-70
2021/06/06 11:18:59;;;;;;;46.95;27.52;;;;;;;17.77;65.39;101128.69;8710934;34;20231;-70
2021/06/06 11:24:33;;;;;;;45.10;28.15;;;;;;;18.68;63.41;101130.38;8708895;34;20181;-71
2021/06/06 11:29:48;;;;;;;46.75;27.10;;;;;;;19.02;61.36;101133.16;8642794;33;20224;-70
2021/06/06 11:35:18;;;;;;;42.40;25.65;;;;;;;18.64;62.22;101131.69;8713128;33;20200;-70
2021/06/06 11:40:35;;;;;;;46.47;26.23;;;;;;;18.62;62.49;101126.38;8721567;33;20211;-70
2021/06/06 11:45:43;;;;;;;39.33;25.23;;;;;;;18.82;62.59;101109.91;8716756;33;20188;-72
2021/06/06 11:50:51;;;;;;;41.00;25.02;;;;;;;19.24;60.06;101108.06;8710040;34;20362;-71
2021/06/06 11:56:09;;;;;;;40.67;25.35;;;;;;;19.64;58.64;101106.53;8710063;34;20701;-72
2021/06/06 12:01:17;;;;;;;37.38;24.25;;;;;;;19.75;58.02;101107.25;8710441;34;20758;-71
2021/06/06 12:06:26;;;;;;;39.45;25.35;;;;;;;18.77;61.61;101108.47;8730270;33;20177;-71
2021/06/06 12:11:34;;;;;;;36.33;23.85;;;;;;;18.89;61.67;101102.78;8736187;33;20211;-71
2021/06/06 12:16:51;;;;;;;38.30;24.83;;;;;;;19.74;59.41;101089.16;8734012;33;20332;-70
2021/06/06 12:22:06;;;;;;;39.38;24.13;;;;;;;20.30;57.16;101095.72;8733238;33;20208;-71
2021/06/06 12:27:32;;;;;;;36.92;23.83;;;;;;;20.68;56.86;101091.44;8738149;33;20189;-70
2021/06/06 12:32:40;;;;;;;39.00;24.52;;;;;;;20.27;56.59;101085.13;8756420;33;20615;-71
2021/06/06 12:37:44;;;;;;;33.03;21.48;;;;;;;20.03;57.18;101083.25;8733436;33;20209;-70
2021/06/06 12:42:55;;;;;;;30.38;21.25;;;;;;;19.72;57.93;101086.63;8711233;33;20701;-71
2021/06/06 12:48:08;;;;;;;33.47;21.77;;;;;;;20.27;57.67;101088.72;8712742;33;20181;-71
2021/06/06 12:53:26;;;;;;;30.52;20.10;;;;;;;19.93;58.48;101090.75;8761678;27;20219;-71
2021/06/06 13:05:40;;;;;;;29.55;18.70;;;;;;;21.04;54.91;101084.72;8708262;34;20188;-73
2021/06/06 13:10:55;;;;;;;25.60;17.40;;;;;;;21.59;54.45;101079.13;8708238;34;20201;-72
2021/06/06 13:15:58;;;;;;;24.48;16.50;;;;;;;21.90;53.18;101075.53;8707404;34;20221;-73
2021/06/06 13:21:16;;;;;;;26.05;18.13;;;;;;;21.58;53.33;101082.88;8707175;34;20597;-72
2021/06/06 13:26:23;;;;;;;24.27;17.40;;;;;;;21.12;54.47;101087.41;8704686;34;20177;-73
2021/06/06 13:31:29;;;;;;;25.35;17.38;;;;;;;20.67;55.87;101092.44;8684809;34;20216;-73
2021/06/06 13:36:35;;;;;;;23.50;16.83;;;;;;;20.68;56.36;101090.56;8709869;34;20212;-73
2021/06/06 13:41:37;;;;;;;26.30;17.08;;;;;;;20.95;55.81;101094.75;8684665;34;20224;-73
2021/06/06 13:46:40;;;;;;;19.27;14.98;;;;;;;20.52;55.88;101096.91;8707781;34;20256;-73
2021/06/06 13:51:45;;;;;;;21.17;13.27;;;;;;;20.56;56.34;101090.06;8707089;34;20212;-73
2021/06/06 13:56:50;;;;;;;17.58;13.05;;;;;;;20.01;57.71;101093.47;8707365;34;20294;-73
2021/06/06 14:01:53;;;;;;;19.98;12.15;;;;;;;19.48;58.44;101111.91;8704073;34;20275;-72
2021/06/06 14:06:57;;;;;;;17.17;11.77;;;;;;;19.22;59.58;101112.81;8705398;34;20195;-73
2021/06/06 14:12:02;;;;;;;15.02;10.68;;;;;;;19.86;58.30;101112.38;8682828;34;20209;-72
2021/06/06 14:17:06;;;;;;;17.05;11.80;;;;;;;19.76;58.66;101119.84;8710969;33;20209;-72
2021/06/06 14:22:10;;;;;;;19.58;13.27;;;;;;;19.41;59.42;101121.75;8681281;34;20710;-73
2021/06/06 14:27:13;;;;;;;22.83;14.70;;;;;;;19.62;58.98;101119.47;8656341;34;20194;-72
2021/06/06 14:32:16;;;;;;;24.05;15.23;;;;;;;19.46;59.52;101122.97;8657292;34;20296;-72
2021/06/06 14:37:20;;;;;;;22.02;15.55;;;;;;;19.69;59.01;101116.91;8654459;34;20291;-72
2021/06/06 14:42:23;;;;;;;21.73;15.30;;;;;;;19.58;58.74;101120.84;8654820;34;20221;-72
2021/06/06 14:47:25;;;;;;;21.10;14.52;;;;;;;19.63;59.66;101132.06;8687920;34;20247;-72
2021/06/06 14:52:29;;;;;;;22.33;15.07;;;;;;;19.59;59.50;101127.13;8660490;34;20225;-73
2021/06/06 14:57:32;;;;;;;23.23;15.88;;;;;;;19.37;59.87;101123.09;8655079;34;20208;-72
2021/06/06 15:02:34;;;;;;;24.75;15.20;;;;;;;19.00;60.85;101125.13;8654963;34;20225;-72
2021/06/06 15:07:39;;;;;;;20.70;14.40;;;;;;;18.38;62.35;101120.78;8654994;34;20186;-72
2021/06/06 15:12:43;;;;;;;22.33;14.82;;;;;;;18.19;63.84;101127.25;8654296;34;20209;-72
2021/06/06 15:17:45;;;;;;;19.90;13.48;;;;;;;18.44;62.83;101123.72;8653567;34;20221;-73
2021/06/06 15:22:49;;;;;;;20.45;12.85;;;;;;;18.40;62.91;101121.47;8653804;34;20205;-73
2021/06/06 15:27:52;;;;;;;20.17;13.77;;;;;;;18.39;63.34;101117.88;8653630;34;20181;-72
2021/06/06 15:32:55;;;;;;;19.92;13.98;;;;;;;18.42;62.81;101119.44;8653538;34;20206;-72
2021/06/06 15:37:59;;;;;;;18.92;13.02;;;;;;;18.63;62.24;101117.22;8646462;34;20202;-72
2021/06/06 15:43:03;;;;;;;21.48;14.18;;;;;;;18.02;63.51;101123.50;8653879;34;20236;-72
2021/06/06 15:48:08;;;;;;;21.17;13.85;;;;;;;18.14;63.90;101125.00;8653833;34;20201;-72
2021/06/06 15:53:15;;;;;;;22.08;14.50;;;;;;;;;;8689679;34;20681;-72
2021/06/06 15:58:19;;;;;;;20.55;14.27;;;;;;;18.21;63.94;101122.50;8710260;34;20215;-72
2021/06/06 16:03:25;;;;;;;20.85;13.63;;;;;;;18.41;63.40;101117.75;8710228;33;20200;-73
2021/06/06 16:08:30;;;;;;;20.27;14.18;;;;;;;;;;8710038;33;20205;-73
2021/06/06 16:13:34;;;;;;;22.70;14.68;;;;;;;18.27;64.02;101106.41;8710180;34;20229;-73
2021/06/06 16:18:36;;;;;;;24.08;15.68;;;;;;;17.64;66.12;101109.19;8709943;33;20209;-72
2021/06/06 16:23:41;;;;;;;23.23;14.30;;;;;;;17.56;65.82;101106.38;8710798;33;20208;-72
2021/06/06 16:28:44;;;;;;;23.75;14.48;;;;;;;17.47;66.69;101108.16;8681186;34;20236;-73
2021/06/06 16:33:49;;;;;;;24.08;15.88;;;;;;;17.50;66.72;101107.84;8679236;34;20236;-73
2021/06/06 16:38:54;;;;;;;23.55;14.93;;;;;;;17.88;65.52;101103.13;8678742;34;20764;-73
2021/06/06 16:43:58;;;;;;;20.20;14.65;;;;;;;17.96;64.42;101105.06;8678548;33;20704;-73
2021/06/06 16:49:01;;;;;;;22.20;14.65;;;;;;;17.75;65.56;101098.09;8678384;34;20225;-73
2021/06/06 16:54:06;;;;;;;25.05;15.15;;;;;;;17.64;65.79;101103.75;8677683;33;20224;-72
2021/06/06 16:59:11;;;;;;;23.85;14.77;;;;;;;17.54;66.01;101105.66;8654068;33;20257;-73
2021/06/06 17:04:14;;;;;;;21.63;13.73;;;;;;;17.30;66.58;101098.06;8677445;33;20233;-72
2021/06/06 17:09:18;;;;;;;24.02;16.30;;;;;;;17.24;66.89;101107.69;8653753;33;20287;-72
2021/06/06 17:14:21;;;;;;;26.23;16.98;;;;;;;17.35;67.05;101114.78;8678208;33;20228;-73
2021/06/06 17:19:23;;;;;;;24.77;15.43;;;;;;;17.54;66.78;101105.66;8654647;33;20640;-72
2021/06/06 17:24:28;;;;;;;22.05;14.82;;;;;;;17.31;66.60;101106.09;8677127;33;20235;-72
2021/06/06 17:29:31;;;;;;;21.83;15.15;;;;;;;17.35;66.58;101104.75;8674120;33;20224;-73
2021/06/06 17:34:34;;;;;;;24.33;15.05;;;;;;;17.33;67.11;101095.91;8678162;33;20224;-73
2021/06/06 17:39:38;;;;;;;26.90;16.23;;;;;;;16.96;67.80;101110.34;8677553;33;21041;-73
2021/06/06 17:44:41;;;;;;;22.90;15.88;;;;;;;16.92;68.36;101106.22;8676654;33;21730;-73
2021/06/06 17:49:43;;;;;;;23.85;16.40;;;;;;;16.86;68.71;101114.09;8655182;34;20315;-73
2021/06/06 17:54:50;;;;;;;24.80;15.93;;;;;;;16.93;68.46;101110.63;8681970;33;20240;-73
2021/06/06 17:59:52;;;;;;;23.35;16.52;;;;;;;17.09;67.89;101106.44;8681770;33;21475;-73
2021/06/06 18:04:55;;;;;;;22.55;15.60;;;;;;;17.11;68.06;101107.97;8674224;33;20232;-73
2021/06/06 18:09:59;;;;;;;23.05;15.70;;;;;;;17.13;68.03;101111.44;8682385;33;20251;-73
2021/06/06 18:15:03;;;;;;;23.33;15.05;;;;;;;17.14;67.87;101117.72;8681873;33;20321;-73
2021/06/06 18:20:11;;;;;;;22.77;15.23;;;;;;;17.08;68.07;101121.00;8682108;34;20227;-74
2021/06/06 18:25:21;;;;;;;23.60;16.17;;;;;;;16.99;68.27;101122.75;8681644;33;20229;-73
2021/06/06 18:30:24;;;;;;;25.15;18.50;;;;;;;16.89;68.78;101124.63;8681788;33;20232;-74
2021/06/06 18:35:29;;;;;;;30.00;19.35;;;;;;;16.93;68.85;101117.94;8681325;33;20236;-74
2021/06/06 18:40:36;;;;;;;26.30;16.42;;;;;;;16.87;68.65;101121.25;8682223;33;20251;-74
2021/06/06 18:45:39;;;;;;;22.10;16.33;;;;;;;16.87;68.88;101116.66;8744134;33;20219;-74
2021/06/06 18:50:43;;;;;;;25.40;16.15;;;;;;;16.80;68.93;101113.66;8739193;33;20220;-73
2021/06/06 18:55:51;;;;;;;23.17;15.68;;;;;;;16.82;69.09;101127.09;8738721;33;20255;-72
2021/06/06 19:01:00;;;;;;;28.27;16.98;;;;;;;16.68;69.40;101128.41;8737849;33;20288;-73
2021/06/06 19:06:07;;;;;;;27.25;17.50;;;;;;;16.62;69.22;101130.84;8714249;33;20228;-72
2021/06/06 19:11:13;;;;;;;25.15;15.60;;;;;;;16.64;69.93;101134.28;8738432;33;20315;-74
2021/06/06 19:16:15;;;;;;;24.92;16.42;;;;;;;16.66;69.74;101141.28;8738583;33;20259;-73
2021/06/06 19:21:19;;;;;;;27.45;17.23;;;;;;;16.63;69.85;101140.72;8738441;33;20318;-73
2021/06/06 19:26:27;;;;;;;26.17;17.80;;;;;;;16.61;69.84;101145.41;8737338;33;20224;-71
2021/06/06 19:31:30;;;;;;;25.95;17.80;;;;;;;16.63;69.61;101152.41;8738458;33;20235;-75
2021/06/06 19:36:33;;;;;;;27.17;17.45;;;;;;;16.55;69.92;101157.72;8736571;33;20231;-74
2021/06/06 19:41:37;;;;;;;29.15;16.77;;;;;;;16.53;69.91;101159.69;8737275;33;20262;-74
2021/06/06 19:46:40;;;;;;;27.80;17.98;;;;;;;16.53;69.86;101168.69;8737246;33;20273;-74
2021/06/06 19:51:44;;;;;;;25.92;17.25;;;;;;;16.56;69.75;101171.13;8737312;33;20228;-75
2021/06/06 19:56:48;;;;;;;30.70;18.58;;;;;;;16.39;70.00;101165.56;8736804;33;20239;-74
2021/06/06 20:01:51;;;;;;;26.48;17.90;;;;;;;16.31;70.66;101169.84;8736565;33;20256;-74
2021/06/06 20:06:55;;;;;;;32.70;19.30;;;;;;;16.35;70.73;101174.00;8737346;33;20219;-74
2021/06/06 20:11:59;;;;;;;30.80;18.45;;;;;;;16.38;71.09;101169.28;8737148;33;20232;-74
2021/06/06 20:17:03;;;;;;;28.10;18.42;;;;;;;16.24;71.17;101165.13;8708800;33;20228;-74
2021/06/06 20:22:11;;;;;;;31.02;19.23;;;;;;;16.30;71.32;101172.72;8736444;33;20353;-75
2021/06/06 20:27:18;;;;;;;27.60;18.58;;;;;;;16.07;71.61;101170.25;8712560;33;20220;-74
2021/06/06 20:32:21;;;;;;;31.15;19.00;;;;;;;16.04;71.97;101173.22;8737406;33;20782;-75
2021/06/06 20:37:24;;;;;;;35.97;20.88;;;;;;;16.05;72.24;101176.81;8737302;33;20219;-74
2021/06/06 20:42:35;;;;;;;30.98;18.52;;;;;;;16.07;71.98;101183.81;8736115;33;20239;-75
2021/06/06 20:47:37;;;;;;;30.83;19.35;;;;;;;16.03;71.60;101182.34;8735543;33;20231;-74
2021/06/06 20:52:43;;;;;;;27.95;18.83;;;;;;;16.03;71.32;101181.50;8736148;33;20234;-75
2021/06/06 20:57:48;;;;;;;29.85;17.85;;;;;;;15.99;71.93;101171.94;8735422;33;22026;-74
2021/06/06 21:02:51;;;;;;;28.83;19.27;;;;;;;15.97;71.58;101172.09;8734983;33;20228;-74
2021/06/06 21:07:53;;;;;;;31.23;18.23;;;;;;;15.96;71.73;101169.50;8735717;33;20219;-74
2021/06/06 21:12:57;;;;;;;31.73;19.30;;;;;;;15.94;71.76;101172.38;8735729;33;20240;-74
2021/06/06 21:18:02;;;;;;;31.20;18.67;;;;;;;15.91;72.16;101176.22;8735459;33;20266;-74
2021/06/06 21:23:10;;;;;;;29.83;19.33;;;;;;;15.92;71.75;101168.94;8735312;33;20224;-74
2021/06/06 21:28:14;;;;;;;28.42;18.52;;;;;;;15.97;72.19;101169.38;8735252;33;20219;-74
2021/06/06 21:33:20;;;;;;;33.30;19.40;;;;;;;15.99;71.98;101166.50;8735413;33;20331;-74
2021/06/06 21:38:25;;;;;;;29.23;17.98;;;;;;;16.02;71.90;101166.25;8735174;33;20259;-73
2021/06/06 21:43:29;;;;;;;32.35;20.40;;;;;;;16.01;71.99;101167.22;8735092;33;20235;-74
2021/06/06 21:48:31;;;;;;;34.40;20.02;;;;;;;15.97;72.13;101173.94;8735274;33;21723;-74
2021/06/06 21:53:34;;;;;;;31.65;19.30;;;;;;;15.76;72.37;101169.47;8735183;33;20724;-74
2021/06/06 21:58:38;;;;;;;31.15;18.77;;;;;;;15.55;73.33;101175.00;8734933;33;20231;-74
2021/06/06 22:03:43;;;;;;;31.08;18.77;;;;;;;15.64;73.11;101170.59;8734887;33;20235;-74
2021/06/06 22:08:45;;;;;;;32.72;19.45;;;;;;;15.69;73.20;101173.75;8733942;33;20231;-74
2021/06/06 22:13:49;;;;;;;31.95;19.75;;;;;;;15.69;72.98;101181.88;8737875;33;20655;-74
2021/06/06 22:18:52;;;;;;;31.88;18.95;;;;;;;15.60;73.13;101186.25;8733601;33;20275;-74
2021/06/06 22:24:51;;;;;;;34.35;21.02;;;;;;;15.63;73.12;101179.69;8734014;33;20267;-75
2021/06/06 22:30:50;;;;;;;30.83;19.55;;;;;;;15.70;72.78;101170.88;8734547;33;20231;-72
2021/06/06 22:36:48;;;;;;;32.17;18.98;;;;;;;15.76;72.39;101174.03;8735826;33;21869;-74
2021/06/06 22:42:47;;;;;;;31.83;18.50;;;;;;;15.59;72.64;101178.28;8738560;33;20239;-75
2021/06/06 22:48:46;;;;;;;33.85;19.85;;;;;;;15.64;72.74;101178.72;8738668;33;20483;-74
2021/06/06 22:54:44;;;;;;;32.13;19.27;;;;;;;15.66;72.58;101184.84;8738225;33;20326;-74
2021/06/06 23:00:44;;;;;;;34.45;18.85;;;;;;;15.67;72.33;101175.72;8738865;33;20262;-74
2021/06/06 23:06:43;;;;;;;28.33;18.48;;;;;;;15.61;72.43;101174.44;8737561;33;20232;-74
2021/06/06 23:12:41;;;;;;;33.10;19.90;;;;;;;15.62;72.44;101173.44;8737932;33;20263;-76
2021/06/06 23:17:45;;;;;;;33.88;20.63;;;;;;;15.54;72.53;101169.69;8737625;33;20236;-73
2021/06/06 23:22:49;;;;;;;33.75;20.17;;;;;;;15.51;72.40;101168.13;8737625;33;20230;-74
2021/06/06 23:27:51;;;;;;;30.40;19.38;;;;;;;15.53;72.53;101174.25;8712956;33;20240;-75